Decoded Metar for KVBG (LOMPOC in CA, USA) (IATA:VBG) | Meteo·Mobile Aviation Weather
aviador You're here:

KVBG Decoded Metar

LOMPOC in CA, USA
Report Time2018-10-20 16:58:00
UTC Time2018-10-20 17:45:53
Flight Rules vfr VFR
Wind140° at 09 kt
W.Decomp.*RWY 12: 9.0 kt HW 0.9 kt RCW
W.Rank140° ranks 20
Current wind is above 140° avg. (6.0)
Visibility9999 m
Phenomena:N/A
Clouds:N/A
Expected CloudBase > 8,800 ft AGL from Temp-Dew spread
CeilingNone
Temp24°C (ISA +10)
Dew Point02°C (24% RH)
AAT19.1°C
QNH1015 hPa
Density Alt1,529 ft
Elevation367 ft
Report Wrong Elevation
Raw Report
KVBG 201658Z AUTO 14009KT 10SM CLR 24/02 A2998 RMK AO2 SLP154
T02430015=

Extra information for KVBG:More info

Metar Taf Metar & Taf Last 4 Metars F.Rules Stats Wind Profile Meteogram Temp Stats Airport Information Weather charts Add Link Nearby VenuesMetar ALERT Operation Metar Decoded Social comments

AIRNAV info for KVBG